Weather at Hagfors Airport

Public forecast

Using degrees Celsius for public forecast. Weather courtesy of forecast.io.

Closest aviation weather report (METAR) to Hagfors Airport

Closest report is Torsby Airport, 19.4 nm (36.0 km) WNW. Retrieved 2021/03/06 04:20 UTC (27 minutes ago):

ESST 060420Z AUTO 20007KT 9999 FEW110/// M01/M06 Q1017

Closest aviation forecast (TAF) to Hagfors Airport

Forecast is more than 12 hours old.

Closest forecast is Karlstad Airport, 35.3 nm (65.4 km) SSW. Retrieved 2017/05/22 06:33 UTC (4 years ago):

TAF ESOK 220530Z 2206/2224 28006KT CAVOK